Wilbur by the Sea, Florida
Current Conditions -  °F | °C
As of 9:53 AM on Saturday 20 Dec 2014 (Local Time) from KDAB Reporting Station
Scattered Clouds Scattered Clouds  
Wind Chill: 70°   Ceiling: Unl
Heat Index: 70°   Visibility: 9mi
Dew Point: 59°   Wind: 0mph
Humidity: 68%   Direction: NA
Pressure: 30.14"   Gusts: NA
Location:  29.1091°N, 80.9979°W
Report Text: KDAB 201453Z 00000KT 9SM FEW030 SCT049 SCT110 SCT150 21/15 A3014 RMK AO2 SLP205 T02110150 53013
Loading
Personal Weather Stations






























Interactive Weather Map New forecast layout! Learn more

10-Day Weather Forecast

Advertisements
Track Severe Weather on mobile